Time;durP1;ratioP1;P1;durP2;ratioP2;P2;SDS_P1;SDS_P2;PMS_P1;PMS_P2;Temp;Humidity;BMP_temperature;BMP_pressure;BME280_temperature;BME280_humidity;BME280_pressure;Samples;Min_cycle;Max_cycle;Signal;HPM_P1;HPM_P2
2023/11/07 00:01:27;;;;;;;2.33;0.80;;;10.20;62.80;;;;;;5094387;28;20201;-73
2023/11/07 00:03:54;;;;;;;2.00;0.60;;;10.30;62.00;;;;;;5094609;28;20273;-74
2023/11/07 00:06:22;;;;;;;1.80;0.70;;;10.30;60.90;;;;;;5094748;28;20357;-73
2023/11/07 00:08:50;;;;;;;1.95;0.60;;;10.30;60.80;;;;;;5094640;28;20643;-73
2023/11/07 00:11:17;;;;;;;1.70;0.60;;;10.40;60.50;;;;;;5093931;28;20276;-73
2023/11/07 00:13:47;;;;;;;2.00;0.80;;;10.40;60.80;;;;;;5094684;28;20243;-73
2023/11/07 00:16:14;;;;;;;2.42;0.85;;;10.40;61.20;;;;;;5094415;28;20193;-73
2023/11/07 00:18:41;;;;;;;1.80;0.70;;;10.40;60.50;;;;;;5094482;28;20254;-73
2023/11/07 00:21:09;;;;;;;2.28;1.05;;;10.40;60.30;;;;;;5094001;28;20229;-73
2023/11/07 00:23:38;;;;;;;1.70;0.60;;;10.50;59.90;;;;;;5094140;28;20272;-73
2023/11/07 00:26:06;;;;;;;2.00;0.70;;;10.40;59.40;;;;;;5093704;28;20304;-74
2023/11/07 00:28:33;;;;;;;2.17;0.93;;;10.40;59.40;;;;;;5092335;28;20220;-74
2023/11/07 00:31:02;;;;;;;2.13;1.10;;;10.40;59.50;;;;;;5092781;28;20189;-73
2023/11/07 00:33:29;;;;;;;1.83;0.70;;;10.40;60.10;;;;;;5093960;28;20221;-73
2023/11/07 00:35:58;;;;;;;1.92;0.70;;;10.40;60.10;;;;;;5094829;28;20190;-73
2023/11/07 00:38:25;;;;;;;2.00;0.73;;;10.40;60.10;;;;;;5094064;28;20201;-74
2023/11/07 00:40:52;;;;;;;1.70;0.60;;;10.40;60.80;;;;;;5093537;28;20221;-73
2023/11/07 00:43:20;;;;;;;1.70;0.50;;;10.40;61.00;;;;;;5093697;28;20652;-73
2023/11/07 00:45:47;;;;;;;1.70;0.60;;;10.40;60.50;;;;;;5093047;28;20636;-73
2023/11/07 00:48:18;;;;;;;2.00;0.70;;;10.40;60.10;;;;;;5093592;28;20217;-73
2023/11/07 00:50:46;;;;;;;1.70;0.70;;;10.50;59.90;;;;;;5094092;28;20182;-73
2023/11/07 00:53:13;;;;;;;1.65;0.60;;;10.50;60.30;;;;;;5093751;28;20244;-73
2023/11/07 00:55:40;;;;;;;1.70;0.60;;;10.50;60.50;;;;;;5093474;28;20221;-74
2023/11/07 00:58:21;;;;;;;1.70;0.50;;;10.60;60.50;;;;;;5093798;28;20189;-73
2023/11/07 01:00:48;;;;;;;1.70;0.60;;;10.50;60.40;;;;;;5093790;28;20204;-73
2023/11/07 01:03:16;;;;;;;1.70;0.60;;;10.50;60.10;;;;;;5092647;28;20792;-73
2023/11/07 01:05:44;;;;;;;3.20;0.65;;;10.50;59.30;;;;;;5093736;28;20204;-73
2023/11/07 01:08:19;;;;;;;1.70;0.65;;;10.50;59.00;;;;;;5093312;28;20228;-74
2023/11/07 01:10:46;;;;;;;2.70;0.60;;;10.50;59.20;;;;;;5093675;28;20177;-73
2023/11/07 01:13:14;;;;;;;1.70;0.60;;;10.50;59.50;;;;;;5093145;28;20193;-73
2023/11/07 01:15:42;;;;;;;1.80;0.70;;;10.50;59.60;;;;;;5093320;28;20213;-73
2023/11/07 01:18:09;;;;;;;1.70;0.60;;;10.50;59.00;;;;;;5093453;28;20296;-73
2023/11/07 01:20:36;;;;;;;1.98;1.10;;;10.50;59.20;;;;;;5092860;28;20229;-73
2023/11/07 01:23:05;;;;;;;2.47;0.85;;;10.50;59.40;;;;;;5092638;28;20694;-74
2023/11/07 01:25:35;;;;;;;1.80;0.70;;;10.50;59.70;;;;;;5093374;28;20186;-73
2023/11/07 01:28:03;;;;;;;2.33;0.70;;;10.50;59.70;;;;;;5092904;28;20262;-73
2023/11/07 01:30:32;;;;;;;2.00;0.70;;;10.50;59.10;;;;;;5093245;28;20266;-73
2023/11/07 01:32:59;;;;;;;2.97;0.80;;;10.50;59.20;;;;;;5092845;28;20247;-73
2023/11/07 01:35:27;;;;;;;1.90;0.80;;;10.50;59.30;;;;;;5093371;28;20191;-73
2023/11/07 01:37:54;;;;;;;1.80;0.63;;;10.60;58.90;;;;;;5093010;28;20639;-73
2023/11/07 01:40:23;;;;;;;1.73;0.70;;;10.50;59.00;;;;;;5093159;28;20200;-73
2023/11/07 01:42:51;;;;;;;1.70;0.60;;;10.50;59.60;;;;;;5093483;28;20258;-73
2023/11/07 01:45:21;;;;;;;1.80;0.70;;;10.50;59.40;;;;;;5092580;28;20686;-73
2023/11/07 01:47:51;;;;;;;1.80;0.60;;;10.50;58.80;;;;;;5092239;28;20198;-74
2023/11/07 01:50:18;;;;;;;3.10;0.70;;;10.50;58.30;;;;;;5092605;28;20197;-73
2023/11/07 01:52:46;;;;;;;2.10;0.77;;;10.50;58.50;;;;;;5092319;28;20652;-73
2023/11/07 01:55:17;;;;;;;1.67;0.60;;;10.50;58.40;;;;;;5092502;28;20194;-73
2023/11/07 01:57:47;;;;;;;1.70;0.60;;;10.50;58.60;;;;;;5093136;28;20181;-73
2023/11/07 02:00:32;;;;;;;1.70;0.60;;;10.40;58.70;;;;;;5092762;28;20235;-73
2023/11/07 02:02:59;;;;;;;2.10;0.70;;;10.40;58.10;;;;;;5092606;28;20188;-73
2023/11/07 02:05:27;;;;;;;2.30;0.70;;;10.40;58.50;;;;;;5092245;28;20193;-74
2023/11/07 02:07:58;;;;;;;1.70;0.60;;;10.30;59.00;;;;;;5092975;28;20213;-74
2023/11/07 02:10:31;;;;;;;3.35;0.73;;;10.30;59.40;;;;;;5092930;28;20628;-73
2023/11/07 02:12:59;;;;;;;1.88;0.70;;;10.20;59.80;;;;;;5092777;28;20177;-73
2023/11/07 02:15:29;;;;;;;1.90;0.80;;;10.20;60.10;;;;;;5092270;28;20251;-73
2023/11/07 02:17:59;;;;;;;2.63;0.90;;;10.10;60.70;;;;;;5092107;28;20197;-73
2023/11/07 02:20:29;;;;;;;2.10;0.90;;;10.10;61.30;;;;;;5091962;28;20221;-73
2023/11/07 02:23:04;;;;;;;2.35;0.82;;;10.10;61.60;;;;;;5092513;28;20189;-75
2023/11/07 02:25:32;;;;;;;2.55;0.90;;;10.10;61.60;;;;;;5092275;28;20181;-74
2023/11/07 02:27:59;;;;;;;3.05;0.90;;;10.00;62.20;;;;;;5092319;28;20667;-73
2023/11/07 02:30:27;;;;;;;2.30;0.70;;;10.00;62.60;;;;;;5092497;28;20189;-73
2023/11/07 02:32:56;;;;;;;2.05;0.90;;;9.90;63.70;;;;;;5091838;28;20662;-73
2023/11/07 02:35:23;;;;;;;1.80;0.70;;;9.90;63.80;;;;;;5092197;28;20532;-73
2023/11/07 02:37:50;;;;;;;1.80;0.70;;;9.80;63.80;;;;;;5092222;28;20201;-74
2023/11/07 02:40:24;;;;;;;2.90;0.93;;;9.80;64.10;;;;;;5093326;28;20239;-73
2023/11/07 02:42:52;;;;;;;1.70;0.60;;;9.80;64.50;;;;;;5092608;28;20181;-73
2023/11/07 02:45:19;;;;;;;2.22;0.65;;;9.80;64.70;;;;;;5092143;28;20186;-73
2023/11/07 02:47:47;;;;;;;1.90;0.70;;;9.80;65.00;;;;;;5092527;28;20263;-73
2023/11/07 02:50:16;;;;;;;1.90;0.85;;;9.70;65.60;;;;;;5092537;28;20266;-73
2023/11/07 02:53:04;;;;;;;2.80;0.80;;;9.60;66.40;;;;;;5092595;28;20302;-73
2023/11/07 02:55:32;;;;;;;2.33;1.00;;;9.60;66.90;;;;;;5092197;28;20178;-73
2023/11/07 02:58:01;;;;;;;1.80;0.70;;;9.50;67.20;;;;;;5092869;28;20313;-73
2023/11/07 03:00:32;;;;;;;1.90;0.70;;;9.50;67.30;;;;;;5089486;28;20205;-73
2023/11/07 03:02:59;;;;;;;2.38;0.90;;;9.50;67.20;;;;;;5092164;28;20178;-73
2023/11/07 03:05:26;;;;;;;2.05;0.90;;;9.50;67.20;;;;;;5092097;28;20258;-73
2023/11/07 03:07:56;;;;;;;2.00;0.75;;;9.60;67.30;;;;;;5093112;28;20227;-73
2023/11/07 03:10:23;;;;;;;2.00;0.82;;;9.60;67.20;;;;;;5096681;28;20558;-73
2023/11/07 03:12:50;;;;;;;2.13;0.90;;;9.60;67.00;;;;;;5095794;28;20246;-74
2023/11/07 03:15:19;;;;;;;2.25;0.82;;;9.60;66.90;;;;;;5095627;28;20194;-73
2023/11/07 03:17:46;;;;;;;2.30;0.90;;;9.70;66.90;;;;;;5095512;28;20775;-73
2023/11/07 03:20:14;;;;;;;1.80;0.70;;;9.80;66.80;;;;;;5095426;28;20253;-73
2023/11/07 03:22:41;;;;;;;1.80;0.73;;;9.80;66.80;;;;;;5096071;28;20254;-73
2023/11/07 03:25:09;;;;;;;1.70;0.70;;;9.80;66.70;;;;;;5095427;28;20193;-73
2023/11/07 03:27:36;;;;;;;2.03;0.90;;;9.90;66.20;;;;;;5095370;28;20304;-73
2023/11/07 03:30:13;;;;;;;1.80;0.60;;;9.90;65.50;;;;;;5095091;28;20597;-74
2023/11/07 03:32:42;;;;;;;2.50;1.10;;;9.90;65.40;;;;;;5075403;28;20247;-73
2023/11/07 03:35:10;;;;;;;4.68;0.98;;;9.90;66.10;;;;;;5075422;28;20574;-73
2023/11/07 03:37:37;;;;;;;2.90;1.20;;;9.90;66.30;;;;;;5075165;28;20234;-73
2023/11/07 03:40:08;;;;;;;3.30;1.50;;;9.80;66.30;;;;;;5091035;28;20193;-73
2023/11/07 03:42:35;;;;;;;2.83;1.42;;;9.80;66.50;;;;;;5095357;28;20189;-73
2023/11/07 03:45:03;;;;;;;3.00;1.23;;;9.80;66.90;;;;;;5095243;28;20185;-73
2023/11/07 03:47:30;;;;;;;2.90;1.17;;;9.70;67.30;;;;;;5095431;28;20213;-73
2023/11/07 03:49:59;;;;;;;2.70;1.15;;;9.70;68.00;;;;;;5094931;28;20232;-73
2023/11/07 03:52:29;;;;;;;2.88;1.50;;;9.70;67.90;;;;;;5095017;28;20201;-73
2023/11/07 03:54:58;;;;;;;2.88;1.25;;;9.80;67.50;;;;;;5094679;28;20197;-73
2023/11/07 03:57:25;;;;;;;2.03;1.00;;;9.80;67.60;;;;;;5095323;28;20811;-73
2023/11/07 03:59:52;;;;;;;1.80;0.70;;;9.80;67.20;;;;;;5094482;28;20277;-73
2023/11/07 04:02:21;;;;;;;2.17;1.08;;;9.80;66.70;;;;;;5095360;28;20186;-73
2023/11/07 04:04:49;;;;;;;2.28;1.00;;;9.70;67.10;;;;;;5094788;28;20192;-73
2023/11/07 04:07:17;;;;;;;2.28;1.20;;;9.70;67.30;;;;;;5094760;28;20235;-73
2023/11/07 04:09:44;;;;;;;3.40;1.30;;;9.70;67.30;;;;;;5094706;28;20197;-73
2023/11/07 04:12:12;;;;;;;2.85;1.23;;;9.70;67.60;;;;;;5094817;28;20600;-73
2023/11/07 04:14:39;;;;;;;2.63;1.10;;;9.70;67.50;;;;;;5095497;28;20670;-74
2023/11/07 04:17:06;;;;;;;3.40;1.00;;;9.70;67.90;;;;;;5094764;28;20189;-73
2023/11/07 04:19:34;;;;;;;3.25;1.40;;;9.70;67.90;;;;;;5093096;28;20213;-74
2023/11/07 04:22:07;;;;;;;3.10;1.30;;;9.70;67.90;;;;;;5094759;28;20269;-73
2023/11/07 04:24:37;;;;;;;2.33;1.15;;;9.60;68.30;;;;;;5094610;28;20216;-73
2023/11/07 04:27:08;;;;;;;2.88;1.10;;;9.60;68.90;;;;;;5094367;28;20682;-73
2023/11/07 04:29:36;;;;;;;2.58;1.10;;;9.60;69.00;;;;;;5093993;28;20201;-73
2023/11/07 04:32:21;;;;;;;2.50;1.00;;;9.60;69.60;;;;;;5093757;28;20709;-74
2023/11/07 04:34:48;;;;;;;2.10;0.70;;;9.50;69.60;;;;;;5094018;28;20636;-73
2023/11/07 04:37:15;;;;;;;2.00;0.70;;;9.50;69.60;;;;;;5094406;28;20551;-73
2023/11/07 04:39:44;;;;;;;3.10;1.00;;;9.50;69.90;;;;;;5094190;28;20632;-73
2023/11/07 04:42:11;;;;;;;2.67;1.05;;;9.40;69.80;;;;;;5094186;28;20220;-73
2023/11/07 04:44:39;;;;;;;2.42;1.20;;;9.40;70.10;;;;;;5094772;28;20193;-74
2023/11/07 04:47:06;;;;;;;2.67;1.23;;;9.30;70.30;;;;;;5093637;28;20197;-73
2023/11/07 04:49:35;;;;;;;2.50;1.08;;;9.30;70.70;;;;;;5094060;28;20267;-73
2023/11/07 04:52:06;;;;;;;2.67;1.20;;;9.20;70.70;;;;;;5094451;28;20189;-74
2023/11/07 04:54:35;;;;;;;4.20;1.25;;;9.20;70.80;;;;;;5094030;28;20182;-73
2023/11/07 04:57:04;;;;;;;3.28;1.40;;;9.20;70.50;;;;;;5094236;28;20246;-73
2023/11/07 04:59:34;;;;;;;3.60;1.58;;;9.20;69.90;;;;;;5093749;28;20196;-73
2023/11/07 05:02:03;;;;;;;2.40;1.15;;;9.20;69.90;;;;;;5093538;28;20250;-73
2023/11/07 05:04:31;;;;;;;2.53;1.10;;;9.10;69.60;;;;;;5093471;28;20518;-73
2023/11/07 05:06:58;;;;;;;2.92;1.25;;;9.00;70.10;;;;;;5093388;28;20194;-74
2023/11/07 05:09:26;;;;;;;2.20;0.95;;;9.00;70.10;;;;;;5093463;28;20270;-74
2023/11/07 05:11:55;;;;;;;2.20;0.90;;;8.90;70.20;;;;;;5093345;28;20264;-74
2023/11/07 05:14:23;;;;;;;2.45;1.23;;;8.90;70.30;;;;;;5093754;28;20716;-74
2023/11/07 05:16:50;;;;;;;2.90;1.30;;;8.90;70.50;;;;;;5093551;28;20186;-74
2023/11/07 05:19:20;;;;;;;4.68;1.30;;;8.80;70.70;;;;;;5093785;28;20201;-74
2023/11/07 05:21:49;;;;;;;2.83;1.20;;;8.70;71.10;;;;;;5093054;28;20201;-74
2023/11/07 05:24:16;;;;;;;4.22;1.35;;;8.80;71.40;;;;;;5093057;28;20235;-74
2023/11/07 05:26:44;;;;;;;2.17;0.85;;;8.80;71.20;;;;;;5093230;28;20200;-74
2023/11/07 05:29:28;;;;;;;2.92;1.17;;;8.70;70.90;;;;;;5093538;28;20213;-74
2023/11/07 05:31:58;;;;;;;2.70;1.33;;;8.70;71.30;;;;;;5093329;28;20177;-74
2023/11/07 05:34:28;;;;;;;4.45;1.40;;;8.70;71.70;;;;;;5091066;28;20193;-73
2023/11/07 05:36:55;;;;;;;4.95;2.20;;;8.60;71.70;;;;;;5092572;28;20225;-74
2023/11/07 05:39:27;;;;;;;3.00;1.63;;;8.70;72.00;;;;;;5093533;28;20194;-74
2023/11/07 05:41:58;;;;;;;3.13;1.65;;;8.60;72.00;;;;;;5092976;28;20178;-73
2023/11/07 05:44:25;;;;;;;4.90;2.58;;;8.70;72.50;;;;;;5093722;28;20238;-74
2023/11/07 05:46:54;;;;;;;5.18;2.05;;;8.70;72.80;;;;;;5093404;28;20666;-73
2023/11/07 05:49:35;;;;;;;4.30;2.20;;;8.70;73.00;;;;;;5093132;28;20225;-73
2023/11/07 05:52:03;;;;;;;4.28;2.25;;;8.80;73.00;;;;;;5092387;28;20213;-73
2023/11/07 05:54:30;;;;;;;6.32;3.25;;;8.80;73.20;;;;;;5092972;28;20281;-74
2023/11/07 05:56:57;;;;;;;5.97;2.30;;;8.80;73.30;;;;;;5092823;28;20651;-73
2023/11/07 05:59:26;;;;;;;4.47;2.60;;;8.80;73.70;;;;;;5089076;28;20197;-74
2023/11/07 06:01:55;;;;;;;5.97;3.15;;;8.90;73.50;;;;;;5092878;28;20212;-74
2023/11/07 06:04:34;;;;;;;5.13;3.40;;;8.90;73.30;;;;;;5092397;28;20280;-74
2023/11/07 06:07:01;;;;;;;4.78;3.08;;;8.90;73.40;;;;;;5091883;28;20221;-74
2023/11/07 06:09:30;;;;;;;4.60;3.08;;;8.90;73.30;;;;;;5072314;28;20213;-75
2023/11/07 06:11:59;;;;;;;4.35;2.55;;;9.00;73.30;;;;;;5069617;28;20387;-75
2023/11/07 06:14:26;;;;;;;3.97;2.15;;;8.90;73.10;;;;;;5088935;28;20198;-74
2023/11/07 06:16:56;;;;;;;3.65;2.50;;;8.90;73.20;;;;;;5091692;28;20193;-74
2023/11/07 06:19:23;;;;;;;3.10;1.88;;;8.90;73.50;;;;;;5091756;28;20196;-74
2023/11/07 06:21:50;;;;;;;3.05;1.60;;;9.00;73.60;;;;;;5085777;28;20235;-74
2023/11/07 06:24:18;;;;;;;4.40;1.83;;;9.00;73.20;;;;;;5090706;28;20698;-74
2023/11/07 06:26:47;;;;;;;3.35;1.63;;;9.00;73.50;;;;;;5090563;28;20276;-73
2023/11/07 06:29:15;;;;;;;4.90;2.53;;;9.10;73.90;;;;;;5091073;28;20209;-74
2023/11/07 06:31:45;;;;;;;3.85;1.83;;;9.10;74.00;;;;;;5070979;28;20202;-73
2023/11/07 06:34:15;;;;;;;3.17;1.50;;;9.10;74.00;;;;;;5071018;28;20183;-74
2023/11/07 06:36:43;;;;;;;3.13;1.80;;;9.10;74.10;;;;;;5070611;28;20189;-74
2023/11/07 06:39:11;;;;;;;3.70;1.40;;;9.10;73.70;;;;;;5071259;28;20202;-74
2023/11/07 06:41:39;;;;;;;7.55;1.60;;;9.10;73.60;;;;;;5070926;28;20194;-74
2023/11/07 06:44:09;;;;;;;2.90;1.65;;;9.10;73.90;;;;;;5074338;28;20204;-74
2023/11/07 06:46:40;;;;;;;4.03;1.85;;;9.10;74.30;;;;;;5074648;28;20182;-74
2023/11/07 06:49:08;;;;;;;5.30;2.95;;;9.20;74.50;;;;;;5075064;28;20227;-74
2023/11/07 06:51:37;;;;;;;5.32;2.45;;;9.20;74.40;;;;;;5094433;28;20225;-74
2023/11/07 06:54:05;;;;;;;3.25;1.90;;;9.30;74.50;;;;;;5091202;28;20272;-74
2023/11/07 06:56:32;;;;;;;3.63;2.03;;;9.30;74.40;;;;;;5091761;28;20189;-74
2023/11/07 06:58:59;;;;;;;3.85;1.60;;;9.40;74.50;;;;;;5093818;28;20197;-74
2023/11/07 07:01:28;;;;;;;4.72;1.83;;;9.40;74.40;;;;;;5094531;28;20606;-74
2023/11/07 07:03:55;;;;;;;4.20;1.55;;;9.40;74.40;;;;;;5093964;28;20189;-74
2023/11/07 07:06:24;;;;;;;6.47;1.80;;;9.40;74.30;;;;;;5094393;28;20214;-74
2023/11/07 07:08:53;;;;;;;4.28;2.53;;;9.50;74.50;;;;;;5094063;28;20217;-74
2023/11/07 07:11:21;;;;;;;5.15;3.67;;;9.50;74.50;;;;;;5093672;28;20188;-74
2023/11/07 07:13:48;;;;;;;4.70;2.90;;;9.60;74.40;;;;;;5094650;28;20293;-74
2023/11/07 07:16:16;;;;;;;4.60;2.75;;;9.60;74.10;;;;;;5093837;28;20239;-75
2023/11/07 07:18:44;;;;;;;6.82;3.25;;;9.60;74.00;;;;;;5094662;28;20207;-74
2023/11/07 07:21:12;;;;;;;3.90;2.70;;;9.70;74.10;;;;;;5094773;28;20280;-74
2023/11/07 07:23:46;;;;;;;4.97;2.42;;;9.70;74.00;;;;;;5094131;28;20223;-75
2023/11/07 07:26:16;;;;;;;3.58;2.10;;;9.70;74.00;;;;;;5093603;28;20191;-74
2023/11/07 07:28:43;;;;;;;6.70;3.08;;;9.70;74.10;;;;;;5091732;28;20249;-75
2023/11/07 07:31:16;;;;;;;4.93;2.08;;;9.80;74.10;;;;;;5092610;28;20196;-74
2023/11/07 07:33:43;;;;;;;3.00;2.10;;;9.80;73.70;;;;;;5092765;28;20235;-74
2023/11/07 07:36:15;;;;;;;3.95;2.20;;;9.90;73.90;;;;;;5094508;28;20205;-74
2023/11/07 07:38:42;;;;;;;3.92;2.05;;;9.90;73.60;;;;;;5095079;28;20185;-75
2023/11/07 07:41:10;;;;;;;4.47;2.25;;;10.00;72.40;;;;;;5094929;28;20246;-74
2023/11/07 07:43:39;;;;;;;4.40;2.45;;;10.00;71.90;;;;;;5094671;28;20242;-75
2023/11/07 07:46:08;;;;;;;3.67;1.52;;;10.00;72.10;;;;;;5091939;28;20204;-74
2023/11/07 07:48:35;;;;;;;6.00;1.65;;;10.00;71.90;;;;;;5094734;28;20225;-74
2023/11/07 07:51:06;;;;;;;3.80;1.70;;;10.10;71.50;;;;;;5094610;28;20197;-73
2023/11/07 07:53:34;;;;;;;3.05;1.30;;;10.10;70.00;;;;;;5094613;28;20574;-74
2023/11/07 07:56:01;;;;;;;2.28;1.13;;;10.10;69.40;;;;;;5094216;28;20198;-75
2023/11/07 07:58:31;;;;;;;3.75;1.38;;;10.20;69.70;;;;;;5094585;28;20202;-74
2023/11/07 08:01:03;;;;;;;5.07;2.42;;;10.20;69.80;;;;;;5093886;28;20190;-74
2023/11/07 08:03:33;;;;;;;4.55;1.88;;;10.20;69.00;;;;;;5094504;28;20189;-74
2023/11/07 08:06:03;;;;;;;2.40;1.20;;;10.30;68.80;;;;;;5094594;28;20232;-74
2023/11/07 08:08:30;;;;;;;3.40;1.58;;;10.30;68.30;;;;;;5094093;28;20193;-74
2023/11/07 08:10:58;;;;;;;2.78;1.38;;;10.30;67.10;;;;;;5094226;28;20193;-74
2023/11/07 08:13:25;;;;;;;4.60;2.20;;;10.30;66.60;;;;;;5094127;28;20232;-75
2023/11/07 08:15:52;;;;;;;2.75;1.30;;;10.30;66.20;;;;;;5093377;28;20665;-74
2023/11/07 08:18:21;;;;;;;3.40;2.40;;;10.40;65.80;;;;;;5094311;28;20547;-74
2023/11/07 08:20:50;;;;;;;2.85;1.58;;;10.50;65.10;;;;;;5094414;28;20374;-74
2023/11/07 08:23:17;;;;;;;2.70;1.15;;;10.50;65.50;;;;;;5094681;28;20277;-74
2023/11/07 08:25:44;;;;;;;2.45;1.30;;;10.50;65.40;;;;;;5094289;28;20189;-74
2023/11/07 08:28:11;;;;;;;4.35;1.00;;;10.60;65.60;;;;;;5093856;28;20194;-74
2023/11/07 08:30:38;;;;;;;2.00;0.90;;;10.60;66.00;;;;;;5093482;28;20209;-74
2023/11/07 08:33:06;;;;;;;2.10;1.05;;;10.70;66.30;;;;;;5093509;28;20201;-74
2023/11/07 08:35:36;;;;;;;3.70;1.63;;;10.80;66.00;;;;;;5085361;28;20194;-74
2023/11/07 08:38:03;;;;;;;3.30;2.15;;;10.80;65.40;;;;;;5073218;28;20648;-74
2023/11/07 08:40:30;;;;;;;2.55;1.63;;;11.00;65.00;;;;;;5073485;28;20194;-74
2023/11/07 08:42:59;;;;;;;3.83;1.73;;;11.00;63.30;;;;;;5073212;28;20715;-74
2023/11/07 08:45:28;;;;;;;2.83;1.30;;;11.10;63.20;;;;;;5073161;28;20190;-74
2023/11/07 08:48:00;;;;;;;3.95;1.85;;;11.10;63.40;;;;;;5073835;28;20532;-74
2023/11/07 08:50:27;;;;;;;2.92;1.55;;;11.20;62.90;;;;;;5073346;28;20210;-74
2023/11/07 08:52:57;;;;;;;3.10;1.38;;;11.20;62.30;;;;;;5073582;28;20610;-75
2023/11/07 08:55:25;;;;;;;3.17;1.30;;;11.30;61.60;;;;;;5073409;28;20218;-74
2023/11/07 08:57:53;;;;;;;2.35;1.30;;;11.30;61.10;;;;;;5072985;28;20644;-74
2023/11/07 09:00:22;;;;;;;2.70;1.10;;;11.30;60.80;;;;;;5073235;28;20226;-75
2023/11/07 09:02:49;;;;;;;3.80;1.40;;;11.30;60.50;;;;;;5073043;28;20197;-74
2023/11/07 09:05:18;;;;;;;3.13;1.48;;;11.30;60.90;;;;;;5079433;28;20181;-74
2023/11/07 09:07:45;;;;;;;5.07;2.42;;;11.30;60.40;;;;;;5093157;28;20577;-74
2023/11/07 09:10:14;;;;;;;4.68;1.73;;;11.40;59.80;;;;;;5093215;28;20278;-74
2023/11/07 09:12:42;;;;;;;3.42;1.35;;;11.30;59.70;;;;;;5092884;28;20267;-74
2023/11/07 09:15:10;;;;;;;2.33;1.23;;;11.40;58.90;;;;;;5092890;28;20197;-74
2023/11/07 09:17:38;;;;;;;2.35;0.90;;;11.40;58.50;;;;;;5092909;28;20652;-74
2023/11/07 09:20:09;;;;;;;2.72;1.52;;;11.40;59.00;;;;;;5092539;28;20229;-74
2023/11/07 09:22:37;;;;;;;2.50;1.15;;;11.40;59.60;;;;;;5092838;28;20186;-74
2023/11/07 09:25:06;;;;;;;2.78;1.35;;;11.40;59.90;;;;;;5093259;28;20193;-75
2023/11/07 09:27:36;;;;;;;2.30;0.90;;;11.50;59.60;;;;;;5093351;28;20235;-74
2023/11/07 09:30:12;;;;;;;2.92;1.40;;;11.50;58.80;;;;;;5092831;28;20213;-74
2023/11/07 09:32:39;;;;;;;3.92;1.70;;;11.60;59.10;;;;;;5092259;28;20618;-74
2023/11/07 09:35:07;;;;;;;4.93;1.60;;;11.70;58.90;;;;;;5092415;28;20215;-75
2023/11/07 09:37:39;;;;;;;4.15;1.40;;;11.90;59.10;;;;;;5092325;28;20225;-74
2023/11/07 09:40:12;;;;;;;3.30;1.45;;;11.90;59.00;;;;;;5092595;28;20185;-75
2023/11/07 09:42:44;;;;;;;3.90;1.70;;;12.00;58.80;;;;;;5092524;28;20581;-74
2023/11/07 09:45:14;;;;;;;2.40;0.93;;;12.10;58.90;;;;;;5092191;28;20423;-74
2023/11/07 09:47:45;;;;;;;2.40;1.00;;;12.20;57.50;;;;;;5092729;28;20228;-74
2023/11/07 09:50:16;;;;;;;2.50;1.30;;;12.20;57.10;;;;;;5092129;28;20528;-74
2023/11/07 09:52:45;;;;;;;12.03;4.40;;;12.30;57.30;;;;;;5092775;28;20902;-74
2023/11/07 09:55:15;;;;;;;2.20;1.20;;;12.30;57.40;;;;;;5092844;28;20436;-74
2023/11/07 09:57:49;;;;;;;6.37;1.33;;;12.30;56.90;;;;;;5092363;28;20933;-74
2023/11/07 10:00:20;;;;;;;3.87;1.50;;;12.20;55.80;;;;;;5092644;28;20785;-74
2023/11/07 10:02:50;;;;;;;2.43;1.53;;;12.20;55.60;;;;;;5092533;28;20538;-74
2023/11/07 10:05:21;;;;;;;2.27;1.00;;;12.20;55.70;;;;;;5092438;28;20435;-74
2023/11/07 10:07:49;;;;;;;2.60;1.10;;;12.20;55.70;;;;;;5092079;28;20484;-74
2023/11/07 10:10:17;;;;;;;2.92;1.27;;;12.20;56.30;;;;;;5092300;28;20558;-74
2023/11/07 10:12:48;;;;;;;2.30;1.13;;;12.30;55.20;;;;;;5092061;28;20193;-74
2023/11/07 10:15:17;;;;;;;2.45;1.15;;;12.20;55.00;;;;;;5091803;28;20428;-74
2023/11/07 10:17:58;;;;;;;3.60;1.10;;;12.20;55.30;;;;;;5092599;28;20221;-74
2023/11/07 10:20:26;;;;;;;2.45;1.25;;;12.20;55.40;;;;;;5096209;28;20599;-74
2023/11/07 10:22:53;;;;;;;2.40;1.10;;;12.20;55.20;;;;;;5096268;28;20280;-74
2023/11/07 10:25:28;;;;;;;3.67;1.17;;;12.20;54.90;;;;;;5096092;28;20627;-74
2023/11/07 10:28:03;;;;;;;2.73;1.50;;;12.20;55.20;;;;;;5096237;28;20426;-74
2023/11/07 10:30:39;;;;;;;3.00;1.27;;;12.30;54.70;;;;;;5095032;28;20817;-74
2023/11/07 10:33:07;;;;;;;3.35;1.38;;;12.40;54.50;;;;;;5096010;28;20457;-74
2023/11/07 10:35:51;;;;;;;2.50;1.20;;;12.40;53.90;;;;;;5095795;28;20352;-74
2023/11/07 10:38:19;;;;;;;2.80;1.37;;;12.50;54.00;;;;;;5095720;28;20213;-74
2023/11/07 10:40:49;;;;;;;3.10;1.33;;;12.50;54.20;;;;;;5096191;28;20435;-74
2023/11/07 10:43:32;;;;;;;2.90;1.07;;;12.60;54.90;;;;;;5095679;28;20473;-74
2023/11/07 10:46:02;;;;;;;2.55;1.25;;;12.70;55.70;;;;;;5095934;28;20824;-74
2023/11/07 10:48:32;;;;;;;3.30;1.10;;;12.80;55.70;;;;;;5095552;28;20273;-74
2023/11/07 10:51:03;;;;;;;6.53;1.30;;;13.00;55.20;;;;;;5095969;28;20837;-74
2023/11/07 10:53:33;;;;;;;2.38;1.33;;;13.00;55.50;;;;;;5095883;28;20449;-74
2023/11/07 10:56:02;;;;;;;2.93;0.70;;;13.00;55.30;;;;;;5095545;28;20558;-74
2023/11/07 10:58:32;;;;;;;4.25;2.75;;;12.90;55.10;;;;;;5096336;28;20476;-74
2023/11/07 11:01:03;;;;;;;2.30;1.23;;;12.90;55.40;;;;;;5096346;28;20193;-74
2023/11/07 11:03:31;;;;;;;3.17;1.00;;;12.90;54.50;;;;;;5095808;28;20567;-74
2023/11/07 11:06:02;;;;;;;2.37;1.03;;;12.90;54.50;;;;;;5095659;28;20446;-74
2023/11/07 11:08:31;;;;;;;4.17;1.47;;;12.80;54.70;;;;;;5095700;28;20427;-74
2023/11/07 11:10:59;;;;;;;3.70;1.30;;;12.90;55.20;;;;;;5095234;28;20494;-74
2023/11/07 11:13:27;;;;;;;2.60;1.00;;;12.90;55.40;;;;;;5095321;28;20966;-74
2023/11/07 11:15:58;;;;;;;2.30;1.23;;;12.90;55.40;;;;;;5095241;28;20431;-74
2023/11/07 11:18:29;;;;;;;2.70;1.37;;;12.90;55.80;;;;;;5095680;28;20423;-74
2023/11/07 11:21:03;;;;;;;2.60;1.60;;;12.90;56.20;;;;;;5095260;28;20552;-74
2023/11/07 11:23:39;;;;;;;2.87;1.30;;;12.90;56.20;;;;;;5094877;28;20477;-74
2023/11/07 11:26:16;;;;;;;2.80;1.00;;;12.90;55.90;;;;;;5094969;28;20416;-74
2023/11/07 11:28:43;;;;;;;3.40;1.20;;;12.80;55.90;;;;;;5095071;28;20415;-73
2023/11/07 11:31:16;;;;;;;2.77;1.60;;;12.90;56.10;;;;;;5095624;28;20475;-74
2023/11/07 11:33:49;;;;;;;4.63;1.93;;;12.90;56.40;;;;;;5094810;28;20948;-74
2023/11/07 11:36:37;;;;;;;2.70;1.47;;;12.90;56.60;;;;;;5094821;28;21003;-74
2023/11/07 11:39:38;;;;;;;4.47;2.50;;;12.90;56.60;;;;;;5094624;28;21011;-74
2023/11/07 11:42:09;;;;;;;3.30;1.67;;;12.90;56.90;;;;;;5094832;28;20436;-74
2023/11/07 11:44:36;;;;;;;2.30;1.10;;;13.00;56.60;;;;;;5095047;28;20432;-74
2023/11/07 11:47:07;;;;;;;5.13;2.80;;;13.00;56.20;;;;;;5094839;28;20836;-74
2023/11/07 11:49:36;;;;;;;2.17;0.97;;;13.10;55.20;;;;;;5094961;28;20770;-74
2023/11/07 11:52:24;;;;;;;3.13;1.00;;;13.20;55.50;;;;;;5094901;28;20431;-74
2023/11/07 11:54:55;;;;;;;2.57;1.00;;;13.20;55.10;;;;;;5094075;28;20431;-74
2023/11/07 11:57:22;;;;;;;2.00;0.80;;;13.30;54.20;;;;;;5089949;28;20481;-74
2023/11/07 11:59:54;;;;;;;2.50;1.17;;;13.40;53.80;;;;;;5094559;28;20460;-74
2023/11/07 12:02:39;;;;;;;2.37;1.10;;;13.50;53.60;;;;;;5094074;28;20431;-74
2023/11/07 12:05:12;;;;;;;2.50;1.17;;;13.50;53.50;;;;;;5093660;28;20442;-74
2023/11/07 12:07:40;;;;;;;2.13;0.90;;;13.60;53.50;;;;;;5093593;28;20804;-74
2023/11/07 12:10:08;;;;;;;2.20;1.20;;;13.70;53.40;;;;;;5090300;28;20510;-74
2023/11/07 12:12:37;;;;;;;2.30;0.97;;;13.80;52.70;;;;;;5094173;28;20538;-74
2023/11/07 12:15:06;;;;;;;3.27;1.17;;;13.90;52.60;;;;;;5093005;28;20443;-74
2023/11/07 12:17:45;;;;;;;2.80;1.03;;;14.00;52.40;;;;;;5093721;28;20790;-74
2023/11/07 12:20:14;;;;;;;2.40;1.23;;;14.00;52.70;;;;;;5093756;28;20495;-74
2023/11/07 12:22:44;;;;;;;2.43;1.20;;;14.00;52.00;;;;;;5093945;28;20435;-74
2023/11/07 12:25:13;;;;;;;2.93;1.07;;;14.00;52.20;;;;;;5094048;28;20420;-74
2023/11/07 12:27:42;;;;;;;3.63;1.20;;;13.90;51.60;;;;;;5093898;28;20526;-74
2023/11/07 12:30:16;;;;;;;2.43;1.00;;;13.90;51.90;;;;;;5094286;28;20475;-74
2023/11/07 12:32:45;;;;;;;3.67;1.13;;;13.90;51.10;;;;;;5094755;28;20469;-74
2023/11/07 12:35:20;;;;;;;5.00;1.00;;;13.90;50.10;;;;;;5094288;28;20431;-74
2023/11/07 12:37:48;;;;;;;3.70;1.17;;;13.90;50.60;;;;;;5093574;28;21024;-74
2023/11/07 12:40:16;;;;;;;2.30;1.00;;;13.90;51.10;;;;;;5093481;28;20451;-74
2023/11/07 12:42:52;;;;;;;2.40;1.00;;;13.90;51.10;;;;;;5094379;28;20427;-74
2023/11/07 12:45:25;;;;;;;1.90;0.80;;;13.90;50.30;;;;;;5094475;28;20447;-74
2023/11/07 12:48:00;;;;;;;4.50;1.20;;;13.80;49.40;;;;;;5094595;28;20420;-74
2023/11/07 12:50:34;;;;;;;3.00;1.53;;;13.80;50.00;;;;;;5094523;28;20475;-74
2023/11/07 12:53:03;;;;;;;2.90;1.77;;;13.90;50.00;;;;;;5094391;28;20921;-74
2023/11/07 12:55:31;;;;;;;3.10;1.13;;;14.10;49.40;;;;;;5094630;28;20439;-75
2023/11/07 12:58:00;;;;;;;2.57;1.10;;;14.40;50.30;;;;;;5094780;28;20439;-74
2023/11/07 13:00:28;;;;;;;2.77;1.27;;;14.60;50.30;;;;;;5094153;28;20435;-74
2023/11/07 13:02:56;;;;;;;1.87;0.87;;;14.70;50.50;;;;;;5094422;28;20442;-74